sensor_id;sensor_type;location;lat;lon;timestamp;pressure;altitude;pressure_sealevel;temperature;humidity
54554;BME280;40450;55.848;-3.572;2024-01-30T00:01:34;100069.80;;;1.26;75.40
54554;BME280;40450;55.848;-3.572;2024-01-30T00:04:00;100065.58;;;2.63;73.63
54554;BME280;40450;55.848;-3.572;2024-01-30T00:06:25;100073.07;;;2.46;72.71
54554;BME280;40450;55.848;-3.572;2024-01-30T00:08:51;100077.94;;;2.32;72.56
54554;BME280;40450;55.848;-3.572;2024-01-30T00:11:20;100081.60;;;2.74;73.16
54554;BME280;40450;55.848;-3.572;2024-01-30T00:13:41;100084.24;;;1.77;72.97
54554;BME280;40450;55.848;-3.572;2024-01-30T00:16:06;100082.98;;;1.99;74.01
54554;BME280;40450;55.848;-3.572;2024-01-30T00:18:31;100078.10;;;2.33;72.50
54554;BME280;40450;55.848;-3.572;2024-01-30T00:20:56;100076.53;;;3.21;71.77
54554;BME280;40450;55.848;-3.572;2024-01-30T00:23:21;100090.04;;;1.83;73.91
54554;BME280;40450;55.848;-3.572;2024-01-30T00:25:47;100087.20;;;2.49;72.71
54554;BME280;40450;55.848;-3.572;2024-01-30T00:28:13;100090.72;;;2.04;74.24
54554;BME280;40450;55.848;-3.572;2024-01-30T00:30:42;100089.46;;;2.05;73.31
54554;BME280;40450;55.848;-3.572;2024-01-30T00:33:03;100088.62;;;1.75;75.91
54554;BME280;40450;55.848;-3.572;2024-01-30T00:35:27;100087.58;;;1.58;74.54
54554;BME280;40450;55.848;-3.572;2024-01-30T00:37:53;100081.18;;;2.40;74.71
54554;BME280;40450;55.848;-3.572;2024-01-30T00:40:18;100071.35;;;1.63;73.00
54554;BME280;40450;55.848;-3.572;2024-01-30T00:42:44;100079.10;;;2.82;71.47
54554;BME280;40450;55.848;-3.572;2024-01-30T00:45:14;100079.30;;;2.69;70.85
54554;BME280;40450;55.848;-3.572;2024-01-30T00:47:34;100076.61;;;2.48;71.89
54554;BME280;40450;55.848;-3.572;2024-01-30T00:50:01;100072.63;;;2.63;70.70
54554;BME280;40450;55.848;-3.572;2024-01-30T00:52:29;100071.33;;;2.34;72.16
54554;BME280;40450;55.848;-3.572;2024-01-30T00:54:50;100063.32;;;1.96;72.73
54554;BME280;40450;55.848;-3.572;2024-01-30T00:57:15;100064.77;;;2.06;72.22
54554;BME280;40450;55.848;-3.572;2024-01-30T00:59:40;100070.27;;;1.58;73.05
54554;BME280;40450;55.848;-3.572;2024-01-30T01:02:06;100063.25;;;2.29;72.42
54554;BME280;40450;55.848;-3.572;2024-01-30T01:04:31;100058.00;;;2.72;71.03
54554;BME280;40450;55.848;-3.572;2024-01-30T01:06:56;100061.85;;;1.61;72.36
54554;BME280;40450;55.848;-3.572;2024-01-30T01:09:30;100054.78;;;1.87;71.98
54554;BME280;40450;55.848;-3.572;2024-01-30T01:11:47;100057.86;;;3.00;70.74
54554;BME280;40450;55.848;-3.572;2024-01-30T01:14:14;100059.60;;;3.37;68.85
54554;BME280;40450;55.848;-3.572;2024-01-30T01:16:44;100056.09;;;2.73;68.99
54554;BME280;40450;55.848;-3.572;2024-01-30T01:19:03;100066.40;;;1.44;72.25
54554;BME280;40450;55.848;-3.572;2024-01-30T01:21:28;100065.02;;;2.07;72.05
54554;BME280;40450;55.848;-3.572;2024-01-30T01:23:53;100069.97;;;1.44;74.15
54554;BME280;40450;55.848;-3.572;2024-01-30T01:26:18;100066.11;;;1.83;72.44
54554;BME280;40450;55.848;-3.572;2024-01-30T01:28:52;100064.70;;;2.18;71.68
54554;BME280;40450;55.848;-3.572;2024-01-30T01:31:09;100066.04;;;1.36;73.69
54554;BME280;40450;55.848;-3.572;2024-01-30T01:33:35;100074.56;;;0.19;79.76
54554;BME280;40450;55.848;-3.572;2024-01-30T01:36:00;100073.29;;;-0.88;85.64
54554;BME280;40450;55.848;-3.572;2024-01-30T01:38:25;100064.74;;;-0.22;82.34
54554;BME280;40450;55.848;-3.572;2024-01-30T01:40:53;100068.28;;;-0.20;82.35
54554;BME280;40450;55.848;-3.572;2024-01-30T01:43:15;100070.87;;;-0.08;84.46
54554;BME280;40450;55.848;-3.572;2024-01-30T01:45:41;100069.13;;;1.51;78.88
54554;BME280;40450;55.848;-3.572;2024-01-30T01:48:07;100072.17;;;1.30;76.67
54554;BME280;40450;55.848;-3.572;2024-01-30T01:50:31;100080.66;;;1.69;75.02
54554;BME280;40450;55.848;-3.572;2024-01-30T01:52:58;100078.86;;;0.79;75.93
54554;BME280;40450;55.848;-3.572;2024-01-30T01:55:23;100082.65;;;1.23;78.39
54554;BME280;40450;55.848;-3.572;2024-01-30T01:57:47;100084.26;;;1.56;75.58
54554;BME280;40450;55.848;-3.572;2024-01-30T02:00:13;100086.03;;;1.71;73.29
54554;BME280;40450;55.848;-3.572;2024-01-30T02:02:46;100081.28;;;2.41;72.51
54554;BME280;40450;55.848;-3.572;2024-01-30T02:05:05;100082.48;;;3.04;72.19
54554;BME280;40450;55.848;-3.572;2024-01-30T02:07:28;100084.19;;;2.58;70.93
54554;BME280;40450;55.848;-3.572;2024-01-30T02:09:53;100084.52;;;1.90;71.84
54554;BME280;40450;55.848;-3.572;2024-01-30T02:12:18;100080.10;;;3.25;69.96
54554;BME280;40450;55.848;-3.572;2024-01-30T02:14:45;100078.43;;;3.71;69.82
54554;BME280;40450;55.848;-3.572;2024-01-30T02:17:12;100078.72;;;2.91;68.89
54554;BME280;40450;55.848;-3.572;2024-01-30T02:19:34;100073.73;;;2.71;70.02
54554;BME280;40450;55.848;-3.572;2024-01-30T02:21:59;100070.35;;;2.96;69.42
54554;BME280;40450;55.848;-3.572;2024-01-30T02:24:25;100071.97;;;2.32;69.02
54554;BME280;40450;55.848;-3.572;2024-01-30T02:26:50;100065.05;;;2.49;69.91
54554;BME280;40450;55.848;-3.572;2024-01-30T02:29:15;100063.46;;;2.80;68.53
54554;BME280;40450;55.848;-3.572;2024-01-30T02:31:41;100073.53;;;1.33;71.51
54554;BME280;40450;55.848;-3.572;2024-01-30T02:34:06;100062.47;;;1.83;71.47
54554;BME280;40450;55.848;-3.572;2024-01-30T02:36:32;100057.62;;;1.52;71.68
54554;BME280;40450;55.848;-3.572;2024-01-30T02:38:57;100055.45;;;1.90;72.25
54554;BME280;40450;55.848;-3.572;2024-01-30T02:41:22;100058.93;;;1.29;72.72
54554;BME280;40450;55.848;-3.572;2024-01-30T02:43:48;100063.56;;;2.04;72.37
54554;BME280;40450;55.848;-3.572;2024-01-30T02:46:13;100066.82;;;1.15;73.98
54554;BME280;40450;55.848;-3.572;2024-01-30T02:48:38;100068.35;;;1.53;73.69
54554;BME280;40450;55.848;-3.572;2024-01-30T02:51:04;100066.23;;;2.19;72.88
54554;BME280;40450;55.848;-3.572;2024-01-30T02:53:28;100055.38;;;3.10;70.52
54554;BME280;40450;55.848;-3.572;2024-01-30T02:55:54;100051.95;;;3.81;69.28
54554;BME280;40450;55.848;-3.572;2024-01-30T02:58:19;100057.24;;;4.26;67.40
54554;BME280;40450;55.848;-3.572;2024-01-30T03:00:44;100061.81;;;2.36;68.16
54554;BME280;40450;55.848;-3.572;2024-01-30T03:03:10;100067.19;;;0.75;71.69
54554;BME280;40450;55.848;-3.572;2024-01-30T03:05:35;100070.45;;;1.20;71.50
54554;BME280;40450;55.848;-3.572;2024-01-30T03:08:01;100066.21;;;1.92;72.23
54554;BME280;40450;55.848;-3.572;2024-01-30T03:10:26;100066.95;;;0.24;73.38
54554;BME280;40450;55.848;-3.572;2024-01-30T03:12:52;100068.31;;;1.32;73.17
54554;BME280;40450;55.848;-3.572;2024-01-30T03:15:17;100068.54;;;2.29;71.08
54554;BME280;40450;55.848;-3.572;2024-01-30T03:17:43;100071.48;;;0.93;73.49
54554;BME280;40450;55.848;-3.572;2024-01-30T03:20:08;100075.68;;;1.54;71.90
54554;BME280;40450;55.848;-3.572;2024-01-30T03:22:33;100073.09;;;2.27;70.83
54554;BME280;40450;55.848;-3.572;2024-01-30T03:24:59;100080.68;;;1.91;69.42
54554;BME280;40450;55.848;-3.572;2024-01-30T03:27:29;100085.98;;;1.81;71.11
54554;BME280;40450;55.848;-3.572;2024-01-30T03:29:49;100083.21;;;1.87;69.31
54554;BME280;40450;55.848;-3.572;2024-01-30T03:32:15;100084.45;;;1.55;70.69
54554;BME280;40450;55.848;-3.572;2024-01-30T03:34:40;100082.74;;;1.95;69.74
54554;BME280;40450;55.848;-3.572;2024-01-30T03:37:06;100087.97;;;2.00;68.77
54554;BME280;40450;55.848;-3.572;2024-01-30T03:39:31;100086.07;;;3.00;67.89
54554;BME280;40450;55.848;-3.572;2024-01-30T03:41:56;100085.91;;;4.35;67.72
54554;BME280;40450;55.848;-3.572;2024-01-30T03:44:21;100084.40;;;2.78;66.51
54554;BME280;40450;55.848;-3.572;2024-01-30T03:46:46;100087.01;;;3.07;66.17
54554;BME280;40450;55.848;-3.572;2024-01-30T03:49:12;100087.29;;;2.47;66.30
54554;BME280;40450;55.848;-3.572;2024-01-30T03:51:37;100084.46;;;2.94;66.49
54554;BME280;40450;55.848;-3.572;2024-01-30T03:54:02;100083.11;;;4.41;65.60
54554;BME280;40450;55.848;-3.572;2024-01-30T03:56:27;100088.25;;;4.45;64.77
54554;BME280;40450;55.848;-3.572;2024-01-30T03:58:53;100081.69;;;5.85;63.99
54554;BME280;40450;55.848;-3.572;2024-01-30T04:01:18;100078.30;;;5.15;63.64
54554;BME280;40450;55.848;-3.572;2024-01-30T04:03:43;100080.24;;;5.92;62.36
54554;BME280;40450;55.848;-3.572;2024-01-30T04:06:08;100080.89;;;5.76;61.44
54554;BME280;40450;55.848;-3.572;2024-01-30T04:08:34;100074.88;;;6.74;60.48
54554;BME280;40450;55.848;-3.572;2024-01-30T04:10:59;100068.46;;;6.98;59.78
54554;BME280;40450;55.848;-3.572;2024-01-30T04:13:24;100077.60;;;6.57;58.35
54554;BME280;40450;55.848;-3.572;2024-01-30T04:15:50;100079.07;;;6.56;58.68
54554;BME280;40450;55.848;-3.572;2024-01-30T04:18:15;100077.41;;;7.33;58.10
54554;BME280;40450;55.848;-3.572;2024-01-30T04:20:40;100082.27;;;7.27;57.24
54554;BME280;40450;55.848;-3.572;2024-01-30T04:23:06;100085.15;;;7.20;56.86
54554;BME280;40450;55.848;-3.572;2024-01-30T04:25:31;100088.41;;;7.18;56.08
54554;BME280;40450;55.848;-3.572;2024-01-30T04:27:57;100095.95;;;6.80;55.79
54554;BME280;40450;55.848;-3.572;2024-01-30T04:30:22;100098.29;;;7.16;56.20
54554;BME280;40450;55.848;-3.572;2024-01-30T04:32:47;100099.33;;;7.61;55.14
54554;BME280;40450;55.848;-3.572;2024-01-30T04:35:12;100103.28;;;8.13;55.95
54554;BME280;40450;55.848;-3.572;2024-01-30T04:37:38;100112.04;;;7.97;54.59
54554;BME280;40450;55.848;-3.572;2024-01-30T04:40:05;100111.88;;;7.98;54.02
54554;BME280;40450;55.848;-3.572;2024-01-30T04:42:28;100111.54;;;7.23;53.35
54554;BME280;40450;55.848;-3.572;2024-01-30T04:44:53;100113.48;;;7.86;53.92
54554;BME280;40450;55.848;-3.572;2024-01-30T04:47:18;100117.50;;;8.11;54.17
54554;BME280;40450;55.848;-3.572;2024-01-30T04:49:44;100117.78;;;8.15;53.31
54554;BME280;40450;55.848;-3.572;2024-01-30T04:52:09;100111.93;;;7.41;52.22
54554;BME280;40450;55.848;-3.572;2024-01-30T04:54:34;100117.41;;;8.08;52.18
54554;BME280;40450;55.848;-3.572;2024-01-30T04:56:59;100120.06;;;7.92;52.28
54554;BME280;40450;55.848;-3.572;2024-01-30T04:59:24;100123.85;;;8.09;51.95
54554;BME280;40450;55.848;-3.572;2024-01-30T05:01:50;100120.53;;;7.75;51.93
54554;BME280;40450;55.848;-3.572;2024-01-30T05:04:15;100120.51;;;7.89;51.38
54554;BME280;40450;55.848;-3.572;2024-01-30T05:06:40;100120.39;;;7.54;51.14
54554;BME280;40450;55.848;-3.572;2024-01-30T05:09:05;100127.70;;;7.55;51.57
54554;BME280;40450;55.848;-3.572;2024-01-30T05:11:31;100135.38;;;7.57;51.07
54554;BME280;40450;55.848;-3.572;2024-01-30T05:13:56;100140.54;;;7.43;50.87
54554;BME280;40450;55.848;-3.572;2024-01-30T05:16:24;100145.92;;;7.63;50.96
54554;BME280;40450;55.848;-3.572;2024-01-30T05:18:46;100143.79;;;7.62;50.81
54554;BME280;40450;55.848;-3.572;2024-01-30T05:21:11;100143.68;;;7.03;50.57
54554;BME280;40450;55.848;-3.572;2024-01-30T05:23:37;100146.73;;;7.23;50.72
54554;BME280;40450;55.848;-3.572;2024-01-30T05:26:02;100153.67;;;6.71;50.58
54554;BME280;40450;55.848;-3.572;2024-01-30T05:28:28;100160.65;;;7.00;50.56
54554;BME280;40450;55.848;-3.572;2024-01-30T05:30:52;100166.55;;;6.70;50.42
54554;BME280;40450;55.848;-3.572;2024-01-30T05:33:18;100166.67;;;6.54;50.67
54554;BME280;40450;55.848;-3.572;2024-01-30T05:35:43;100163.01;;;6.34;50.74
54554;BME280;40450;55.848;-3.572;2024-01-30T05:38:08;100164.81;;;6.58;51.40
54554;BME280;40450;55.848;-3.572;2024-01-30T05:40:33;100165.78;;;6.90;51.39
54554;BME280;40450;55.848;-3.572;2024-01-30T05:42:58;100164.63;;;6.81;50.24
54554;BME280;40450;55.848;-3.572;2024-01-30T05:45:24;100160.60;;;6.79;50.63
54554;BME280;40450;55.848;-3.572;2024-01-30T05:47:49;100155.42;;;6.60;50.50
54554;BME280;40450;55.848;-3.572;2024-01-30T05:50:14;100164.59;;;6.79;50.34
54554;BME280;40450;55.848;-3.572;2024-01-30T05:52:43;100169.96;;;6.47;50.00
54554;BME280;40450;55.848;-3.572;2024-01-30T05:55:06;100173.09;;;6.84;49.86
54554;BME280;40450;55.848;-3.572;2024-01-30T05:57:30;100168.61;;;6.22;49.58
54554;BME280;40450;55.848;-3.572;2024-01-30T05:59:56;100172.31;;;6.26;49.67
54554;BME280;40450;55.848;-3.572;2024-01-30T06:04:47;100174.96;;;6.25;49.25
54554;BME280;40450;55.848;-3.572;2024-01-30T06:07:20;100179.81;;;6.04;48.58
54554;BME280;40450;55.848;-3.572;2024-01-30T06:12:02;100181.37;;;6.42;48.54
54554;BME280;40450;55.848;-3.572;2024-01-30T06:14:27;100186.61;;;6.63;48.64
54554;BME280;40450;55.848;-3.572;2024-01-30T06:16:53;100191.76;;;6.43;47.71
54554;BME280;40450;55.848;-3.572;2024-01-30T06:19:18;100198.12;;;6.81;47.87
54554;BME280;40450;55.848;-3.572;2024-01-30T06:21:44;100201.05;;;6.17;48.25
54554;BME280;40450;55.848;-3.572;2024-01-30T06:24:10;100200.79;;;6.21;47.87
54554;BME280;40450;55.848;-3.572;2024-01-30T06:26:36;100198.02;;;5.87;47.81
54554;BME280;40450;55.848;-3.572;2024-01-30T06:29:00;100197.70;;;5.95;47.85
54554;BME280;40450;55.848;-3.572;2024-01-30T06:31:25;100199.19;;;6.33;47.84
54554;BME280;40450;55.848;-3.572;2024-01-30T06:33:51;100197.45;;;5.79;47.80
54554;BME280;40450;55.848;-3.572;2024-01-30T06:36:16;100200.52;;;5.45;47.88
54554;BME280;40450;55.848;-3.572;2024-01-30T06:38:42;100194.14;;;5.43;48.53
54554;BME280;40450;55.848;-3.572;2024-01-30T06:41:08;100195.01;;;5.31;48.36
54554;BME280;40450;55.848;-3.572;2024-01-30T06:43:33;100197.05;;;5.42;48.39
54554;BME280;40450;55.848;-3.572;2024-01-30T06:45:58;100202.19;;;4.75;48.56
54554;BME280;40450;55.848;-3.572;2024-01-30T06:48:23;100208.38;;;4.86;48.96
54554;BME280;40450;55.848;-3.572;2024-01-30T06:50:49;100210.60;;;5.02;48.97
54554;BME280;40450;55.848;-3.572;2024-01-30T06:53:14;100214.46;;;4.98;49.05
54554;BME280;40450;55.848;-3.572;2024-01-30T06:55:39;100214.35;;;5.15;49.32
54554;BME280;40450;55.848;-3.572;2024-01-30T06:58:05;100216.12;;;5.02;49.13
54554;BME280;40450;55.848;-3.572;2024-01-30T07:00:30;100222.94;;;5.09;49.24
54554;BME280;40450;55.848;-3.572;2024-01-30T07:02:55;100229.49;;;5.18;49.03
54554;BME280;40450;55.848;-3.572;2024-01-30T07:05:22;100230.39;;;5.10;48.92
54554;BME280;40450;55.848;-3.572;2024-01-30T07:07:46;100228.64;;;5.15;48.71
54554;BME280;40450;55.848;-3.572;2024-01-30T07:10:11;100233.38;;;4.85;48.68
54554;BME280;40450;55.848;-3.572;2024-01-30T07:15:02;100239.98;;;5.10;49.19
54554;BME280;40450;55.848;-3.572;2024-01-30T07:17:27;100240.94;;;4.77;49.08
54554;BME280;40450;55.848;-3.572;2024-01-30T07:20:28;100241.96;;;4.93;49.18
54554;BME280;40450;55.848;-3.572;2024-01-30T07:22:26;100245.04;;;4.60;49.06
54554;BME280;40450;55.848;-3.572;2024-01-30T07:24:48;100249.41;;;4.67;49.11
54554;BME280;40450;55.848;-3.572;2024-01-30T07:27:13;100254.55;;;4.70;49.43
54554;BME280;40450;55.848;-3.572;2024-01-30T07:29:33;100255.19;;;4.74;49.59
54554;BME280;40450;55.848;-3.572;2024-01-30T07:31:58;100262.68;;;4.27;48.89
54554;BME280;40450;55.848;-3.572;2024-01-30T07:34:24;100265.92;;;4.77;49.10
54554;BME280;40450;55.848;-3.572;2024-01-30T07:36:49;100272.97;;;4.34;49.37
54554;BME280;40450;55.848;-3.572;2024-01-30T07:39:14;100279.85;;;3.71;49.58
54554;BME280;40450;55.848;-3.572;2024-01-30T07:41:39;100286.60;;;3.76;50.09
54554;BME280;40450;55.848;-3.572;2024-01-30T07:44:05;100285.77;;;3.51;50.11
54554;BME280;40450;55.848;-3.572;2024-01-30T07:46:30;100288.47;;;3.30;50.50
54554;BME280;40450;55.848;-3.572;2024-01-30T07:51:23;100292.71;;;3.45;50.73
54554;BME280;40450;55.848;-3.572;2024-01-30T07:54:00;100295.46;;;3.58;50.56
54554;BME280;40450;55.848;-3.572;2024-01-30T07:56:11;100296.12;;;3.51;50.77
54554;BME280;40450;55.848;-3.572;2024-01-30T07:58:37;100302.22;;;3.59;50.97
54554;BME280;40450;55.848;-3.572;2024-01-30T08:01:03;100305.85;;;3.29;50.86
54554;BME280;40450;55.848;-3.572;2024-01-30T08:03:28;100304.46;;;3.90;50.69
54554;BME280;40450;55.848;-3.572;2024-01-30T08:05:58;100306.44;;;3.92;50.76
54554;BME280;40450;55.848;-3.572;2024-01-30T08:08:19;100300.38;;;4.19;50.73
54554;BME280;40450;55.848;-3.572;2024-01-30T08:10:45;100302.78;;;4.04;50.35
54554;BME280;40450;55.848;-3.572;2024-01-30T08:13:10;100313.10;;;3.92;50.04
54554;BME280;40450;55.848;-3.572;2024-01-30T08:15:36;100318.86;;;4.04;50.44
54554;BME280;40450;55.848;-3.572;2024-01-30T08:18:03;100325.93;;;4.04;49.85
54554;BME280;40450;55.848;-3.572;2024-01-30T08:20:26;100333.52;;;4.19;49.71
54554;BME280;40450;55.848;-3.572;2024-01-30T08:22:57;100333.06;;;4.12;49.58
54554;BME280;40450;55.848;-3.572;2024-01-30T08:27:42;100328.24;;;2.93;49.87
54554;BME280;40450;55.848;-3.572;2024-01-30T08:30:08;100330.45;;;3.06;50.29
54554;BME280;40450;55.848;-3.572;2024-01-30T08:32:38;100332.94;;;2.86;50.53
54554;BME280;40450;55.848;-3.572;2024-01-30T08:35:04;100331.98;;;2.78;50.86
54554;BME280;40450;55.848;-3.572;2024-01-30T08:37:23;100338.32;;;2.87;50.98
54554;BME280;40450;55.848;-3.572;2024-01-30T08:39:49;100338.71;;;2.89;51.19
54554;BME280;40450;55.848;-3.572;2024-01-30T08:42:14;100344.16;;;2.26;51.31
54554;BME280;40450;55.848;-3.572;2024-01-30T08:44:39;100348.25;;;2.63;51.43
54554;BME280;40450;55.848;-3.572;2024-01-30T08:47:05;100346.57;;;2.82;51.40
54554;BME280;40450;55.848;-3.572;2024-01-30T08:49:30;100346.30;;;2.70;51.42
54554;BME280;40450;55.848;-3.572;2024-01-30T08:51:55;100344.45;;;2.58;51.48
54554;BME280;40450;55.848;-3.572;2024-01-30T08:54:21;100351.80;;;2.46;51.71
54554;BME280;40450;55.848;-3.572;2024-01-30T08:56:46;100355.89;;;2.15;52.04
54554;BME280;40450;55.848;-3.572;2024-01-30T08:59:11;100356.65;;;2.43;52.00
54554;BME280;40450;55.848;-3.572;2024-01-30T09:01:36;100353.71;;;2.36;51.88
54554;BME280;40450;55.848;-3.572;2024-01-30T09:06:29;100352.37;;;2.59;51.65
54554;BME280;40450;55.848;-3.572;2024-01-30T09:08:52;100348.77;;;3.06;51.32
54554;BME280;40450;55.848;-3.572;2024-01-30T09:11:23;100349.68;;;2.90;50.92
54554;BME280;40450;55.848;-3.572;2024-01-30T09:13:43;100348.94;;;2.75;50.67
54554;BME280;40450;55.848;-3.572;2024-01-30T09:16:14;100350.55;;;3.13;50.67
54554;BME280;40450;55.848;-3.572;2024-01-30T09:18:34;100354.96;;;2.95;50.49
54554;BME280;40450;55.848;-3.572;2024-01-30T09:20:59;100360.44;;;3.26;50.23
54554;BME280;40450;55.848;-3.572;2024-01-30T09:23:24;100365.12;;;3.39;50.07
54554;BME280;40450;55.848;-3.572;2024-01-30T09:25:49;100362.49;;;3.71;49.22
54554;BME280;40450;55.848;-3.572;2024-01-30T09:28:15;100361.51;;;3.84;49.25
54554;BME280;40450;55.848;-3.572;2024-01-30T09:30:40;100362.32;;;3.86;48.84
54554;BME280;40450;55.848;-3.572;2024-01-30T09:33:13;100360.72;;;3.87;48.41
54554;BME280;40450;55.848;-3.572;2024-01-30T09:35:31;100362.27;;;3.52;48.82
54554;BME280;40450;55.848;-3.572;2024-01-30T09:38:24;100361.36;;;3.47;48.49
54554;BME280;40450;55.848;-3.572;2024-01-30T09:40:27;100361.58;;;3.17;48.41
54554;BME280;40450;55.848;-3.572;2024-01-30T09:42:52;100366.15;;;3.72;48.58
54554;BME280;40450;55.848;-3.572;2024-01-30T09:45:24;100367.82;;;4.02;48.58
54554;BME280;40450;55.848;-3.572;2024-01-30T09:47:47;100363.98;;;3.63;48.10
54554;BME280;40450;55.848;-3.572;2024-01-30T09:50:03;100367.45;;;3.44;47.90
54554;BME280;40450;55.848;-3.572;2024-01-30T09:52:29;100368.93;;;3.73;48.18
54554;BME280;40450;55.848;-3.572;2024-01-30T09:55:00;100372.77;;;3.85;47.97
54554;BME280;40450;55.848;-3.572;2024-01-30T09:57:18;100378.63;;;4.09;47.78
54554;BME280;40450;55.848;-3.572;2024-01-30T09:59:44;100378.92;;;3.42;48.02
54554;BME280;40450;55.848;-3.572;2024-01-30T10:02:10;100375.32;;;3.41;48.07
54554;BME280;40450;55.848;-3.572;2024-01-30T10:04:34;100375.40;;;3.11;48.13
54554;BME280;40450;55.848;-3.572;2024-01-30T10:07:01;100376.85;;;3.57;48.27
54554;BME280;40450;55.848;-3.572;2024-01-30T10:09:24;100376.04;;;3.37;48.57
54554;BME280;40450;55.848;-3.572;2024-01-30T10:11:51;100379.59;;;3.30;48.67
54554;BME280;40450;55.848;-3.572;2024-01-30T10:14:17;100385.09;;;3.08;48.63
54554;BME280;40450;55.848;-3.572;2024-01-30T10:16:41;100388.86;;;3.30;48.67
54554;BME280;40450;55.848;-3.572;2024-01-30T10:19:08;100389.14;;;3.15;48.43
54554;BME280;40450;55.848;-3.572;2024-01-30T10:21:31;100389.58;;;3.23;48.93
54554;BME280;40450;55.848;-3.572;2024-01-30T10:23:56;100387.29;;;2.81;49.26
54554;BME280;40450;55.848;-3.572;2024-01-30T10:26:27;100387.13;;;2.96;49.25
54554;BME280;40450;55.848;-3.572;2024-01-30T10:28:48;100385.08;;;3.56;49.19
54554;BME280;40450;55.848;-3.572;2024-01-30T10:31:16;100383.96;;;3.44;48.70
54554;BME280;40450;55.848;-3.572;2024-01-30T10:33:37;100385.56;;;3.88;48.36
54554;BME280;40450;55.848;-3.572;2024-01-30T10:36:04;100388.12;;;4.41;48.67
54554;BME280;40450;55.848;-3.572;2024-01-30T10:38:29;100388.60;;;4.42;48.32
54554;BME280;40450;55.848;-3.572;2024-01-30T10:41:00;100394.62;;;4.42;47.82
54554;BME280;40450;55.848;-3.572;2024-01-30T10:43:32;100401.63;;;4.69;47.92
54554;BME280;40450;55.848;-3.572;2024-01-30T10:45:49;100399.32;;;5.06;47.72
54554;BME280;40450;55.848;-3.572;2024-01-30T10:48:10;100405.16;;;4.74;47.42
54554;BME280;40450;55.848;-3.572;2024-01-30T10:50:43;100404.84;;;5.32;47.22
54554;BME280;40450;55.848;-3.572;2024-01-30T10:53:00;100407.24;;;4.50;47.21
54554;BME280;40450;55.848;-3.572;2024-01-30T10:55:27;100410.83;;;5.34;47.09
54554;BME280;40450;55.848;-3.572;2024-01-30T10:57:50;100412.32;;;5.56;47.41
54554;BME280;40450;55.848;-3.572;2024-01-30T11:00:16;100413.48;;;6.12;46.85
54554;BME280;40450;55.848;-3.572;2024-01-30T11:02:42;100415.29;;;6.48;46.52
54554;BME280;40450;55.848;-3.572;2024-01-30T11:05:05;100419.85;;;5.98;46.06
54554;BME280;40450;55.848;-3.572;2024-01-30T11:07:31;100422.36;;;6.40;45.91
54554;BME280;40450;55.848;-3.572;2024-01-30T11:10:00;100425.98;;;5.51;45.87
54554;BME280;40450;55.848;-3.572;2024-01-30T11:12:23;100434.22;;;5.18;45.67
54554;BME280;40450;55.848;-3.572;2024-01-30T11:14:46;100433.44;;;5.46;45.59
54554;BME280;40450;55.848;-3.572;2024-01-30T11:17:12;100440.03;;;5.45;45.36
54554;BME280;40450;55.848;-3.572;2024-01-30T11:19:37;100439.68;;;5.70;45.24
54554;BME280;40450;55.848;-3.572;2024-01-30T11:22:10;100440.45;;;5.88;44.98
54554;BME280;40450;55.848;-3.572;2024-01-30T11:24:40;100436.73;;;6.04;44.47
54554;BME280;40450;55.848;-3.572;2024-01-30T11:27:03;100439.47;;;6.28;44.50
54554;BME280;40450;55.848;-3.572;2024-01-30T11:29:25;100444.48;;;6.14;44.73
54554;BME280;40450;55.848;-3.572;2024-01-30T11:31:52;100451.47;;;5.62;44.37
54554;BME280;40450;55.848;-3.572;2024-01-30T11:34:09;100451.20;;;6.00;44.63
54554;BME280;40450;55.848;-3.572;2024-01-30T11:36:35;100445.39;;;5.81;44.67
54554;BME280;40450;55.848;-3.572;2024-01-30T11:39:17;100444.63;;;6.08;45.15
54554;BME280;40450;55.848;-3.572;2024-01-30T11:41:25;100451.51;;;5.47;45.09
54554;BME280;40450;55.848;-3.572;2024-01-30T11:43:54;100450.89;;;5.29;45.25
54554;BME280;40450;55.848;-3.572;2024-01-30T11:46:15;100453.31;;;6.30;45.57
54554;BME280;40450;55.848;-3.572;2024-01-30T11:48:41;100446.48;;;6.47;44.86
54554;BME280;40450;55.848;-3.572;2024-01-30T11:51:06;100441.72;;;6.86;44.79
54554;BME280;40450;55.848;-3.572;2024-01-30T11:53:31;100430.25;;;6.58;45.09
54554;BME280;40450;55.848;-3.572;2024-01-30T11:55:56;100425.16;;;7.13;45.58
54554;BME280;40450;55.848;-3.572;2024-01-30T11:58:25;100422.17;;;6.02;45.59
54554;BME280;40450;55.848;-3.572;2024-01-30T12:00:54;100427.77;;;6.60;46.03
54554;BME280;40450;55.848;-3.572;2024-01-30T12:03:12;100429.35;;;6.64;45.66
54554;BME280;40450;55.848;-3.572;2024-01-30T12:05:37;100430.86;;;6.77;45.88
54554;BME280;40450;55.848;-3.572;2024-01-30T12:08:15;100431.58;;;6.33;46.22
54554;BME280;40450;55.848;-3.572;2024-01-30T12:10:32;100430.65;;;6.34;46.56
54554;BME280;40450;55.848;-3.572;2024-01-30T12:12:54;100425.39;;;6.22;46.86
54554;BME280;40450;55.848;-3.572;2024-01-30T12:15:23;100424.08;;;5.58;47.71
54554;BME280;40450;55.848;-3.572;2024-01-30T12:17:44;100419.46;;;5.77;47.86
54554;BME280;40450;55.848;-3.572;2024-01-30T12:20:17;100423.19;;;6.26;47.55
54554;BME280;40450;55.848;-3.572;2024-01-30T12:22:36;100418.91;;;7.08;47.37
54554;BME280;40450;55.848;-3.572;2024-01-30T12:25:00;100419.07;;;6.97;47.09
54554;BME280;40450;55.848;-3.572;2024-01-30T12:27:24;100414.03;;;7.54;46.73
54554;BME280;40450;55.848;-3.572;2024-01-30T12:29:58;100413.07;;;7.25;46.76
54554;BME280;40450;55.848;-3.572;2024-01-30T12:32:16;100413.12;;;7.50;46.77
54554;BME280;40450;55.848;-3.572;2024-01-30T12:34:41;100410.50;;;7.59;46.50
54554;BME280;40450;55.848;-3.572;2024-01-30T12:37:05;100411.17;;;7.05;46.77
54554;BME280;40450;55.848;-3.572;2024-01-30T12:39:30;100418.06;;;6.53;47.69
54554;BME280;40450;55.848;-3.572;2024-01-30T12:41:56;100423.94;;;6.75;47.84
54554;BME280;40450;55.848;-3.572;2024-01-30T12:44:21;100422.01;;;5.30;48.70
54554;BME280;40450;55.848;-3.572;2024-01-30T12:46:51;100418.35;;;6.47;48.62
54554;BME280;40450;55.848;-3.572;2024-01-30T12:49:17;100413.78;;;6.89;48.40
54554;BME280;40450;55.848;-3.572;2024-01-30T12:51:37;100416.83;;;5.95;49.36
54554;BME280;40450;55.848;-3.572;2024-01-30T12:54:05;100423.57;;;5.43;50.97